Skip to main content

NOAA/GLERL Met Station at Michigan City, IN

Previous 3 Hours (2 minute increments)
See also Previous 5 Days (top of hour)
Jump down to Data
Switch to [English][Metric]
Zoom: Click and drag, Pan: shift-click and drag, Unzoom: double-click, Unzoom All





See also 1-day windrose plot


NOAA/GLERL Met Station at Michigan City, IN

Previous 3 Hours (2 minute increments)
See also Previous 5 Days (top of hour only)
Jump up to Graphs
Switch to [English][Metric]
                  Wind  Wind  Wind   Air   Dew   Rel     Sta   PAR
                   Spd   Gst   Dir  Temp    Pt   Hum    Pres uE/m2/
YYYY-MM-DD   CST   kts   kts   deg     F     F     %   in Hg   sec
2018-11-15 03:22  12.8  15.0    80  29.3  19.9  67.5    0.00     0
2018-11-15 03:20  10.9  14.6    76  29.3  20.1  68.2    0.00     0
2018-11-15 03:18   9.7  11.5    76  29.3  20.3  68.8    0.00     0
2018-11-15 03:16   9.5  12.6    79  29.3  20.2  68.4    0.00     0
2018-11-15 03:14  10.5  12.1    76  29.3  20.3  68.8    0.00     0
2018-11-15 03:12   8.6  11.3    79  29.3  20.2  68.5    0.00     0
2018-11-15 03:10  11.3  15.0    79  29.3  20.3  68.7    0.00     0
2018-11-15 03:08  11.1  13.6    83  29.3  19.9  67.7    0.00     0
2018-11-15 03:06  11.9  15.9    78  29.3  20.0  68.0    0.00     0
2018-11-15 03:04   9.9  11.5    76  29.3  20.3  68.8    0.00     0
2018-11-15 03:02  12.8  15.4    74  29.3  20.2  68.4    0.00     0
2018-11-15 03:00  11.7  14.2    78  29.1  19.7  67.6    0.00     0
2018-11-15 02:58  13.8  16.3    68  29.1  19.5  67.1    0.00     0
2018-11-15 02:56  15.2  17.7    76  29.1  19.7  67.5    0.00     0
2018-11-15 02:54  12.1  15.6    75  29.3  20.1  68.3    0.00     0
2018-11-15 02:52  11.1  16.1    72  29.1  19.9  68.0    0.00     0
2018-11-15 02:50  13.2  15.4    70  29.3  20.0  68.0    0.00     0
2018-11-15 02:48  12.1  15.0    73  29.3  20.1  68.3    0.00     0
2018-11-15 02:46  11.1  14.0    75  29.1  19.8  67.9    0.00     0
2018-11-15 02:44  10.7  13.2    75  29.3  20.2  68.5    0.00     0
2018-11-15 02:42  10.7  12.4    81  29.5  20.4  68.7    0.00     0
2018-11-15 02:40  10.7  12.8    69  29.3  20.4  69.2    0.00     0
2018-11-15 02:38  13.0  15.7    73  29.1  19.8  67.9    0.00     0
2018-11-15 02:36  10.9  14.4    79  29.1  20.0  68.3    0.00     0
2018-11-15 02:34  12.2  15.4    69  29.1  19.7  67.7    0.00     0
2018-11-15 02:32  11.1  12.8    72  29.3  20.1  68.2    0.00     0
2018-11-15 02:30  10.9  13.8    72  29.5  20.5  69.0    0.00     0
2018-11-15 02:28   9.7  11.7    69  29.3  20.3  68.9    0.00     0
2018-11-15 02:26  11.1  13.2    66  29.5  20.7  69.6    0.00     0
2018-11-15 02:24   9.9  13.4    67  29.5  20.6  69.2    0.00     0
2018-11-15 02:22  11.7  14.2    60  29.3  20.1  68.2    0.00     0
2018-11-15 02:20  11.9  14.0    68  29.5  20.5  68.8    0.00     0
2018-11-15 02:18  11.1  14.0    61  29.5  20.7  69.5    0.00     0
2018-11-15 02:16   9.9  14.2    58  29.5  20.7  69.5    0.00     0
2018-11-15 02:14   8.7  10.3    71  29.3  20.3  68.9    0.00     0
2018-11-15 02:12   9.9  13.0    67  29.3  20.2  68.6    0.00     0
2018-11-15 02:10  10.7  12.8    80  29.3  20.0  67.9    0.00     0
2018-11-15 02:08  10.9  13.6    72  29.3  20.4  69.0    0.00     0
2018-11-15 02:06  12.4  13.8    71  29.3  20.4  69.1    0.00     0
2018-11-15 02:04  11.1  13.0    69  29.3  20.1  68.2    0.00     0
2018-11-15 02:02  12.4  15.6    65  29.5  20.5  68.9    0.00     0
2018-11-15 02:00   9.7  13.4    63  29.5  20.7  69.5    0.00     0
2018-11-15 01:58  12.8  14.8    59  29.7  20.9  69.5    0.00     0
2018-11-15 01:56   9.3  13.2    62  29.7  21.1  70.2    0.00     0
2018-11-15 01:54   9.7  11.1    67  29.5  20.4  68.5    0.00     0
2018-11-15 01:52  10.9  14.0    64  29.7  20.9  69.4    0.00     0
2018-11-15 01:50  11.3  14.6    65  29.5  20.2  68.0    0.00     0
2018-11-15 01:48  12.2  15.2    67  29.5  20.0  67.5    0.00     0
2018-11-15 01:46  10.1  13.8    70  29.5  20.2  68.0    0.00     0
2018-11-15 01:44   9.9  11.3    68  29.3  19.7  67.1    0.00     0
2018-11-15 01:42  11.3  13.2    64  29.5  19.9  67.1    0.00     0
2018-11-15 01:40  10.3  12.6    66  29.5  20.2  68.1    0.00     0
2018-11-15 01:38  10.3  12.4    80  29.5  20.0  67.3    0.00     0
2018-11-15 01:36   9.7  12.1    70  29.5  20.0  67.4    0.00     0
2018-11-15 01:34  11.1  13.8    68  29.5  19.9  67.2    0.00     0
2018-11-15 01:32  11.1  13.4    66  29.5  20.0  67.5    0.00     0
2018-11-15 01:30  10.7  13.4    69  29.5  20.3  68.3    0.00     0
2018-11-15 01:28   9.1  12.4    74  29.5  20.2  67.9    0.00     0
2018-11-15 01:26  11.3  14.4    73  29.7  20.3  67.9    0.00     0
2018-11-15 01:24  10.3  12.4    73  29.5  20.0  67.3    0.00     0
2018-11-15 01:22   9.1  15.0    72  29.7  20.4  68.0    0.00     0
2018-11-15 01:20   9.1  11.5    81  29.5  19.9  67.2    0.00     0
2018-11-15 01:18   8.7  11.5    81  29.7  20.3  67.9    0.00     0
2018-11-15 01:16   9.7  11.5    82  29.8  21.0  69.3    0.00     0
2018-11-15 01:14  11.1  13.6    84  29.7  20.3  67.8    0.00     0
2018-11-15 01:12  11.7  14.4    83  29.7  20.2  67.4    0.00     0
2018-11-15 01:10  11.3  13.2    78  29.8  20.9  68.9    0.00     0
2018-11-15 01:08  11.3  14.8    78  29.7  20.3  67.7    0.00     0
2018-11-15 01:06   9.9  12.1    82  29.7  20.3  67.8    0.00     0
2018-11-15 01:04  10.5  14.0    83  29.7  20.3  67.9    0.00     0
2018-11-15 01:02   9.7  13.8    79  29.7  20.6  68.8    0.00     0
2018-11-15 01:00  10.7  13.0    77  29.7  20.5  68.3    0.00     0
2018-11-15 00:58   8.9   9.9    79  29.7  20.7  68.9    0.00     0
2018-11-15 00:56   8.9  11.7    77  29.7  20.8  69.1    0.00     0
2018-11-15 00:54   8.2  11.3    76  29.7  20.6  68.7    0.00     0
2018-11-15 00:52   8.0  10.9    81  29.7  20.8  69.2    0.00     0
2018-11-15 00:50   7.8  10.1    76  29.7  20.6  68.6    0.00     0
2018-11-15 00:48   9.3  11.7    75  29.5  20.3  68.2    0.00     0
2018-11-15 00:46   9.1  11.1    80  29.7  20.6  68.6    0.00     0
2018-11-15 00:44   8.6  10.3    68  29.7  20.4  68.1    0.00     0
2018-11-15 00:42  10.5  13.0    85  29.7  20.5  68.4    0.00     0
2018-11-15 00:40   7.4   9.1    84  29.8  21.0  69.2    0.00     0
2018-11-15 00:38   7.0   9.1    86  29.8  20.9  69.1    0.00     0
2018-11-15 00:36   8.9  11.3    92  29.7  20.5  68.5    0.00     0
2018-11-15 00:34   8.6  10.7    75  29.7  20.4  68.2    0.00     0
2018-11-15 00:32   8.9  12.2    87  29.8  20.8  68.7    0.00     0
2018-11-15 00:30   7.4   8.7    76  29.8  21.0  69.4    0.00     0
2018-11-15 00:28   6.0   8.2    90  29.8  21.1  69.5    0.00     0
2018-11-15 00:26   6.8   9.1    85  29.8  21.2  70.0    0.00     0
2018-11-15 00:24   7.4   9.1    91  29.7  20.8  69.3    0.00     0
2018-11-15 00:22   8.2  10.7    81  29.7  20.8  69.3    0.00     0